Time;durP1;ratioP1;P1;durP2;ratioP2;P2;SDS_P1;SDS_P2;PMS_P1;PMS_P2;Temp;Humidity;BMP_temperature;BMP_pressure;BME280_temperature;BME280_humidity;BME280_pressure;Samples;Min_cycle;Max_cycle;Signal;HPM_P1;HPM_P2
2023/08/17 00:01:48;;;;;;;2.95;2.50;;;21.00;78.50;;;;;;6129088;23;20190;-87
2023/08/17 00:04:14;;;;;;;2.50;2.30;;;21.10;78.60;;;;;;6129055;23;20163;-85
2023/08/17 00:06:40;;;;;;;2.53;2.33;;;21.10;78.70;;;;;;6128013;23;20136;-86
2023/08/17 00:09:06;;;;;;;2.60;2.40;;;21.10;78.50;;;;;;6128868;23;20138;-86
2023/08/17 00:11:33;;;;;;;2.50;2.20;;;21.10;78.60;;;;;;6104519;23;20151;-87
2023/08/17 00:13:59;;;;;;;3.03;2.35;;;21.10;78.70;;;;;;6129266;23;20139;-87
2023/08/17 00:16:25;;;;;;;2.85;2.40;;;21.10;78.70;;;;;;6129126;23;20191;-85
2023/08/17 00:18:51;;;;;;;2.88;2.45;;;21.10;78.70;;;;;;6129562;23;20136;-86
2023/08/17 00:21:17;;;;;;;2.58;2.38;;;21.10;78.70;;;;;;6156242;23;20146;-87
2023/08/17 00:23:43;;;;;;;2.40;2.20;;;21.10;78.80;;;;;;6128813;23;20171;-84
2023/08/17 00:26:14;;;;;;;2.50;2.30;;;21.00;78.80;;;;;;6129015;23;20574;-85
2023/08/17 00:28:44;;;;;;;4.95;2.65;;;21.00;78.80;;;;;;6054976;23;20210;-86
2023/08/17 00:31:14;;;;;;;2.60;2.40;;;21.00;78.70;;;;;;6055405;23;20151;-88
2023/08/17 00:33:40;;;;;;;2.55;2.35;;;21.00;78.80;;;;;;6079094;23;20186;-87
2023/08/17 00:36:06;;;;;;;2.30;2.00;;;21.00;78.80;;;;;;6129110;23;20456;-88
2023/08/17 00:38:32;;;;;;;2.60;2.40;;;21.00;78.80;;;;;;6155191;23;20139;-84
2023/08/17 00:40:58;;;;;;;2.63;2.40;;;21.00;78.90;;;;;;6129195;23;20613;-87
2023/08/17 00:43:24;;;;;;;2.58;2.38;;;21.00;78.90;;;;;;6129020;23;20250;-88
2023/08/17 00:45:50;;;;;;;3.10;2.80;;;21.00;78.80;;;;;;6128813;23;20155;-87
2023/08/17 00:48:15;;;;;;;2.97;2.28;;;21.00;78.80;;;;;;6154834;23;20261;-86
2023/08/17 00:50:41;;;;;;;2.55;2.35;;;21.00;78.90;;;;;;6081058;23;20257;-87
2023/08/17 00:53:12;;;;;;;2.40;2.20;;;21.00;78.90;;;;;;6104634;23;20618;-86
2023/08/17 00:55:39;;;;;;;2.50;2.30;;;21.00;78.90;;;;;;6130153;23;20585;-87
2023/08/17 00:58:05;;;;;;;2.65;2.45;;;21.00;78.90;;;;;;6153325;23;20205;-86
2023/08/17 01:00:31;;;;;;;2.40;2.20;;;21.00;78.90;;;;;;6104516;23;20266;-87
2023/08/17 01:02:57;;;;;;;2.53;2.33;;;21.00;79.00;;;;;;6128772;23;20159;-85
2023/08/17 01:05:23;;;;;;;2.38;2.17;;;21.00;79.00;;;;;;6129026;23;20511;-84
2023/08/17 01:07:49;;;;;;;2.58;2.38;;;20.90;79.00;;;;;;6103346;23;20152;-88
2023/08/17 01:10:19;;;;;;;2.85;2.55;;;21.00;79.00;;;;;;6104578;23;20558;-85
2023/08/17 01:12:53;;;;;;;3.03;2.40;;;21.00;79.10;;;;;;6055821;23;20235;-87
2023/08/17 01:15:32;;;;;;;2.80;2.20;;;20.90;79.10;;;;;;6104676;23;20666;-85
2023/08/17 01:18:03;;;;;;;2.47;2.17;;;21.00;79.20;;;;;;6104511;23;20151;-88
2023/08/17 01:20:28;;;;;;;2.58;2.38;;;21.00;79.20;;;;;;6130406;23;20136;-88
2023/08/17 01:23:06;;;;;;;2.50;2.30;;;21.00;79.20;;;;;;6130630;23;20163;-85
2023/08/17 01:25:36;;;;;;;2.60;2.40;;;21.00;79.20;;;;;;6084335;23;20595;-88
2023/08/17 01:28:06;;;;;;;2.55;2.35;;;21.00;79.20;;;;;;6107014;23;20159;-87
2023/08/17 01:30:44;;;;;;;2.88;2.40;;;21.00;79.20;;;;;;6081561;23;20606;-87
2023/08/17 01:33:10;;;;;;;2.40;2.15;;;21.00;79.20;;;;;;6130263;23;20140;-86
2023/08/17 01:35:46;;;;;;;2.30;2.10;;;21.00;79.20;;;;;;6105963;23;20478;-87
2023/08/17 01:38:17;;;;;;;2.30;2.10;;;21.00;79.30;;;;;;6106102;23;20166;-84
2023/08/17 01:40:44;;;;;;;2.75;2.50;;;21.00;79.20;;;;;;6130565;23;20258;-87
2023/08/17 01:43:10;;;;;;;2.55;2.22;;;21.00;79.20;;;;;;6130321;23;20163;-86
2023/08/17 01:45:36;;;;;;;2.65;2.45;;;21.00;79.20;;;;;;6156376;23;20150;-87
2023/08/17 01:48:02;;;;;;;2.80;2.53;;;21.00;79.30;;;;;;6130254;23;20612;-87
2023/08/17 01:50:31;;;;;;;3.25;2.55;;;21.00;79.30;;;;;;6105929;23;20218;-87
2023/08/17 01:52:57;;;;;;;2.55;2.35;;;21.00;79.40;;;;;;6057066;23;20596;-85
2023/08/17 01:55:23;;;;;;;2.42;2.22;;;20.90;79.30;;;;;;6130357;23;20142;-87
2023/08/17 01:57:49;;;;;;;2.60;2.40;;;20.90;79.40;;;;;;6130092;23;20155;-86
2023/08/17 02:00:19;;;;;;;2.55;2.35;;;20.90;79.40;;;;;;6130015;23;20155;-86
2023/08/17 02:02:45;;;;;;;2.40;2.20;;;20.90;79.40;;;;;;6057129;23;20404;-85
2023/08/17 02:05:11;;;;;;;3.22;2.58;;;20.90;79.40;;;;;;6130654;23;20132;-88
2023/08/17 02:07:37;;;;;;;2.42;2.22;;;20.90;79.50;;;;;;6105101;23;20166;-88
2023/08/17 02:10:04;;;;;;;2.80;2.60;;;20.80;79.50;;;;;;6130390;23;20131;-85
2023/08/17 02:12:34;;;;;;;2.50;2.30;;;20.90;79.40;;;;;;6105658;23;20151;-84
2023/08/17 02:14:59;;;;;;;2.40;2.20;;;20.80;79.50;;;;;;6057041;23;20198;-86
2023/08/17 02:17:25;;;;;;;2.55;2.30;;;21.00;79.60;;;;;;6156176;23;20219;-88
2023/08/17 02:19:55;;;;;;;2.50;2.30;;;20.90;79.50;;;;;;6129808;23;20217;-86
2023/08/17 02:22:21;;;;;;;2.60;2.40;;;20.90;79.60;;;;;;6080882;23;20167;-86
2023/08/17 02:24:47;;;;;;;2.42;2.22;;;20.90;79.60;;;;;;6129877;23;20180;-87
2023/08/17 02:27:13;;;;;;;3.22;2.20;;;20.90;79.60;;;;;;6130023;23;20147;-87
2023/08/17 02:29:39;;;;;;;2.42;2.22;;;20.90;79.60;;;;;;6105297;23;20275;-86
2023/08/17 02:32:05;;;;;;;2.60;2.40;;;20.90;79.60;;;;;;6154341;23;20496;-87
2023/08/17 02:34:31;;;;;;;2.38;2.17;;;20.90;79.60;;;;;;6105505;23;20155;-85
2023/08/17 02:37:01;;;;;;;2.47;2.28;;;20.90;79.70;;;;;;6130347;23;20145;-88
2023/08/17 02:39:27;;;;;;;2.50;2.30;;;20.80;79.70;;;;;;6080820;23;20217;-84
2023/08/17 02:41:53;;;;;;;2.38;2.17;;;20.80;79.70;;;;;;6129884;23;20571;-88
2023/08/17 02:44:20;;;;;;;2.67;2.47;;;20.90;79.70;;;;;;6155738;23;20166;-89
2023/08/17 02:46:46;;;;;;;2.60;2.40;;;20.90;79.80;;;;;;6105370;23;20231;-88
2023/08/17 02:49:12;;;;;;;2.38;2.15;;;20.90;79.80;;;;;;6155544;23;20187;-87
2023/08/17 02:51:38;;;;;;;2.42;2.22;;;20.90;79.80;;;;;;6129802;23;20163;-85
2023/08/17 02:54:04;;;;;;;2.95;2.20;;;20.90;79.90;;;;;;6129742;23;20560;-85
2023/08/17 02:56:30;;;;;;;2.80;2.60;;;20.80;79.80;;;;;;6129463;23;20582;-86
2023/08/17 02:58:56;;;;;;;2.50;2.30;;;20.90;79.80;;;;;;6129730;23;20143;-89
2023/08/17 03:01:22;;;;;;;2.55;1.98;;;20.80;79.90;;;;;;6105159;23;20472;-87
2023/08/17 03:03:48;;;;;;;2.53;2.33;;;20.90;80.00;;;;;;6129488;23;20230;-86
2023/08/17 03:06:14;;;;;;;2.65;2.42;;;20.90;80.00;;;;;;6104744;23;20151;-84
2023/08/17 03:08:40;;;;;;;2.60;2.13;;;20.90;80.00;;;;;;6106107;23;20151;-87
2023/08/17 03:11:09;;;;;;;2.45;2.25;;;20.80;80.00;;;;;;6111920;23;20151;-85
2023/08/17 03:13:35;;;;;;;2.83;2.17;;;20.90;80.00;;;;;;6115600;23;20159;-85
2023/08/17 03:16:01;;;;;;;2.40;2.15;;;20.80;80.80;;;;;;6112218;23;20496;-85
2023/08/17 03:18:27;;;;;;;2.25;2.05;;;20.90;80.10;;;;;;6114096;23;20163;-88
2023/08/17 03:20:53;;;;;;;2.72;2.50;;;20.80;80.00;;;;;;6113678;23;20162;-88
2023/08/17 03:23:19;;;;;;;2.58;2.38;;;20.80;80.00;;;;;;6164867;23;20163;-85
2023/08/17 03:25:45;;;;;;;2.33;2.13;;;20.80;80.10;;;;;;6162606;23;20515;-88
2023/08/17 03:28:15;;;;;;;2.38;2.17;;;20.80;80.20;;;;;;6154008;23;20182;-87
2023/08/17 03:30:45;;;;;;;2.40;2.20;;;20.80;80.20;;;;;;6080384;23;20866;-85
2023/08/17 03:33:11;;;;;;;2.25;2.08;;;20.90;80.20;;;;;;6032336;23;20666;-85
2023/08/17 03:35:37;;;;;;;2.53;2.33;;;20.80;80.20;;;;;;6129788;23;20229;-87
2023/08/17 03:38:07;;;;;;;2.67;2.47;;;20.80;80.20;;;;;;6105001;23;20677;-85
2023/08/17 03:40:33;;;;;;;2.47;2.28;;;20.80;80.20;;;;;;6080532;23;20183;-89
2023/08/17 03:43:03;;;;;;;2.92;2.45;;;20.80;80.20;;;;;;6130663;23;20495;-85
2023/08/17 03:45:30;;;;;;;2.50;2.13;;;20.80;80.20;;;;;;6080831;23;20211;-87
2023/08/17 03:47:56;;;;;;;2.30;2.10;;;20.80;80.20;;;;;;6144071;23;20198;-87
2023/08/17 03:50:31;;;;;;;2.50;2.30;;;20.80;80.20;;;;;;6159368;23;20188;-88
2023/08/17 03:53:06;;;;;;;2.40;2.20;;;20.80;80.30;;;;;;6109431;23;20150;-87
2023/08/17 03:55:32;;;;;;;2.22;2.03;;;20.80;80.30;;;;;;6108631;23;20208;-86
2023/08/17 03:57:58;;;;;;;2.83;2.42;;;20.80;80.20;;;;;;6184559;23;20139;-87
2023/08/17 04:00:24;;;;;;;2.33;2.13;;;20.80;80.30;;;;;;6134087;23;20150;-89
2023/08/17 04:02:51;;;;;;;2.60;2.40;;;20.80;80.40;;;;;;6133971;23;20208;-87
2023/08/17 04:05:21;;;;;;;2.50;2.30;;;20.80;80.40;;;;;;6159179;23;20162;-86
2023/08/17 04:07:47;;;;;;;2.72;2.53;;;20.80;80.40;;;;;;6084146;23;20178;-86
2023/08/17 04:10:13;;;;;;;2.13;1.95;;;20.80;80.40;;;;;;6134101;23;20482;-88
2023/08/17 04:12:39;;;;;;;2.42;2.22;;;20.70;80.30;;;;;;6134199;23;20570;-86
2023/08/17 04:15:05;;;;;;;2.30;2.10;;;20.80;80.50;;;;;;6158724;23;20593;-85
2023/08/17 04:17:35;;;;;;;2.45;2.10;;;20.80;80.50;;;;;;6158607;23;20237;-87
2023/08/17 04:20:01;;;;;;;2.50;2.30;;;20.80;80.50;;;;;;6060753;23;20161;-87
2023/08/17 04:22:27;;;;;;;2.53;2.33;;;20.80;80.50;;;;;;6158623;23;20154;-86
2023/08/17 04:24:53;;;;;;;2.50;2.30;;;20.80;80.60;;;;;;6158698;23;20182;-88
2023/08/17 04:27:19;;;;;;;2.42;2.22;;;20.80;80.50;;;;;;6158691;23;20138;-89
2023/08/17 04:29:45;;;;;;;2.60;2.22;;;20.80;80.50;;;;;;6158707;23;20562;-87
2023/08/17 04:32:15;;;;;;;2.30;2.10;;;20.80;80.90;;;;;;6158662;23;20157;-87
2023/08/17 04:34:46;;;;;;;2.30;2.10;;;20.80;80.30;;;;;;6134416;23;20201;-86
2023/08/17 04:37:12;;;;;;;2.50;2.30;;;20.80;80.30;;;;;;6085313;23;20155;-86
2023/08/17 04:39:38;;;;;;;2.50;2.13;;;20.90;80.10;;;;;;6158636;23;20201;-86
2023/08/17 04:42:04;;;;;;;2.50;2.30;;;20.90;80.10;;;;;;6134383;23;20151;-86
2023/08/17 04:44:30;;;;;;;2.30;2.10;;;21.00;79.90;;;;;;6158234;23;20191;-85
2023/08/17 04:46:56;;;;;;;2.85;2.28;;;20.90;79.80;;;;;;6133686;23;20683;-88
2023/08/17 04:49:21;;;;;;;2.20;2.00;;;20.90;79.80;;;;;;6134198;23;20191;-86
2023/08/17 04:51:47;;;;;;;2.58;2.28;;;20.90;79.70;;;;;;6158529;23;20223;-85
2023/08/17 04:54:13;;;;;;;2.50;2.30;;;21.00;79.70;;;;;;6186500;23;20209;-88
2023/08/17 04:56:39;;;;;;;3.15;2.20;;;21.00;79.60;;;;;;6160467;23;20161;-87
2023/08/17 04:59:05;;;;;;;2.55;2.35;;;20.90;79.50;;;;;;6160825;23;20617;-86
2023/08/17 05:01:32;;;;;;;2.38;2.17;;;21.00;79.40;;;;;;6135673;23;20151;-86
2023/08/17 05:03:58;;;;;;;2.05;1.95;;;21.00;79.30;;;;;;6186596;23;20158;-88
2023/08/17 05:06:24;;;;;;;2.40;2.20;;;21.10;79.30;;;;;;6135231;23;20143;-84
2023/08/17 05:08:49;;;;;;;2.40;2.20;;;21.10;79.30;;;;;;6135522;23;20154;-87
2023/08/17 05:11:15;;;;;;;2.85;2.30;;;21.00;79.30;;;;;;6160304;23;20135;-87
2023/08/17 05:13:41;;;;;;;2.67;2.38;;;21.00;79.30;;;;;;6135480;23;20154;-86
2023/08/17 05:16:11;;;;;;;2.90;2.15;;;21.00;79.50;;;;;;6135512;23;20158;-86
2023/08/17 05:18:37;;;;;;;2.50;2.30;;;21.00;79.40;;;;;;6109601;23;20159;-86
2023/08/17 05:21:03;;;;;;;2.33;2.10;;;21.10;79.60;;;;;;6135726;23;20150;-87
2023/08/17 05:23:29;;;;;;;2.30;2.10;;;21.00;79.40;;;;;;6135355;23;20733;-87
2023/08/17 05:25:55;;;;;;;2.25;2.05;;;21.00;79.50;;;;;;6160269;23;20502;-86
2023/08/17 05:28:21;;;;;;;2.65;2.38;;;21.00;79.60;;;;;;6160380;23;20586;-86
2023/08/17 05:30:47;;;;;;;2.30;2.00;;;20.90;79.60;;;;;;6160212;23;20139;-84
2023/08/17 05:33:12;;;;;;;2.42;2.22;;;20.90;79.60;;;;;;6135234;23;20461;-85
2023/08/17 05:35:39;;;;;;;2.60;2.40;;;21.00;79.70;;;;;;6159989;23;20210;-87
2023/08/17 05:38:04;;;;;;;2.45;2.10;;;20.90;79.70;;;;;;6135597;23;20582;-84
2023/08/17 05:40:31;;;;;;;2.55;2.30;;;20.90;79.70;;;;;;6159825;23;20233;-86
2023/08/17 05:42:57;;;;;;;2.42;2.22;;;21.00;79.70;;;;;;6159817;23;20551;-85
2023/08/17 05:45:23;;;;;;;2.50;2.30;;;21.00;79.60;;;;;;6186190;23;20135;-86
2023/08/17 05:47:49;;;;;;;2.35;2.15;;;20.90;79.80;;;;;;6159697;23;20569;-87
2023/08/17 05:50:15;;;;;;;2.33;1.90;;;20.90;80.00;;;;;;6135243;23;20530;-88
2023/08/17 05:52:45;;;;;;;2.22;2.03;;;20.90;80.20;;;;;;6186122;23;20131;-85
2023/08/17 05:55:11;;;;;;;2.22;2.00;;;20.80;80.30;;;;;;6110251;23;20154;-85
2023/08/17 05:57:36;;;;;;;1.80;1.70;;;20.80;80.30;;;;;;6134896;23;20158;-88
2023/08/17 06:00:03;;;;;;;2.25;2.00;;;20.80;80.50;;;;;;6159924;23;20158;-88
2023/08/17 06:02:29;;;;;;;2.25;2.05;;;20.70;80.30;;;;;;6184959;23;20154;-87
2023/08/17 06:04:55;;;;;;;2.25;2.05;;;20.70;80.10;;;;;;6159498;23;20194;-88
2023/08/17 06:07:20;;;;;;;2.00;1.90;;;20.70;80.30;;;;;;6159343;23;20150;-87
2023/08/17 06:09:46;;;;;;;2.10;1.90;;;20.70;80.30;;;;;;6134894;23;20159;-87
2023/08/17 06:12:12;;;;;;;2.35;2.15;;;20.70;80.30;;;;;;6184407;23;20178;-88
2023/08/17 06:14:38;;;;;;;1.90;1.80;;;20.70;80.30;;;;;;6160344;23;20206;-86
2023/08/17 06:17:04;;;;;;;3.08;1.95;;;20.60;80.20;;;;;;6135387;23;20576;-86
2023/08/17 06:19:30;;;;;;;2.17;1.98;;;20.60;80.30;;;;;;6160140;23;20186;-86
2023/08/17 06:21:56;;;;;;;2.10;1.90;;;20.70;80.20;;;;;;6159948;23;20139;-87
2023/08/17 06:24:22;;;;;;;2.30;1.90;;;20.60;80.20;;;;;;6159670;23;20185;-87
2023/08/17 06:26:48;;;;;;;2.20;1.98;;;20.60;80.10;;;;;;6185811;23;20563;-86
2023/08/17 06:29:14;;;;;;;2.20;2.00;;;20.60;80.10;;;;;;6159752;23;20154;-89
2023/08/17 06:31:40;;;;;;;2.30;2.10;;;20.60;80.20;;;;;;6186095;23;20547;-87
2023/08/17 06:34:06;;;;;;;2.22;2.03;;;20.60;80.10;;;;;;6134576;23;20497;-87
2023/08/17 06:36:39;;;;;;;1.88;1.77;;;20.70;80.00;;;;;;6135217;23;20154;-88
2023/08/17 06:39:05;;;;;;;1.95;1.85;;;20.60;80.00;;;;;;6086062;23;20555;-88
2023/08/17 06:41:31;;;;;;;2.25;1.85;;;20.60;80.10;;;;;;6160545;23;20197;-86
2023/08/17 06:44:25;;;;;;;3.22;1.80;;;20.60;80.00;;;;;;6159944;23;20614;-87
2023/08/17 09:36:38;;;;;;;7.15;1.98;;;21.10;77.20;;;;;;6202234;22;20251;-90
2023/08/17 09:40:11;;;;;;;4.30;1.90;;;21.10;77.10;;;;;;6160167;23;20285;-92
2023/08/17 09:57:10;;;;;;;7.93;2.55;;;21.60;75.50;;;;;;5778306;24;20194;-90
2023/08/17 19:43:42;;;;;;;1.80;1.70;;;20.80;78.90;;;;;;6067756;22;1745296;-88
2023/08/17 19:46:10;;;;;;;1.70;1.60;;;20.70;78.70;;;;;;6170661;23;20149;-87
2023/08/17 19:48:37;;;;;;;2.15;1.92;;;20.80;78.80;;;;;;6170164;23;20153;-87
2023/08/17 19:51:07;;;;;;;2.08;1.73;;;20.80;78.90;;;;;;6195643;23;20157;-88
2023/08/17 19:53:33;;;;;;;2.15;1.80;;;20.80;78.80;;;;;;6195189;23;20180;-88
2023/08/17 19:55:59;;;;;;;1.75;1.65;;;20.80;78.90;;;;;;6170701;23;20145;-88
2023/08/17 19:58:29;;;;;;;1.90;1.70;;;20.80;78.80;;;;;;6195085;23;20484;-88
2023/08/17 20:00:54;;;;;;;1.67;1.58;;;20.70;78.60;;;;;;6195303;23;20228;-88
2023/08/17 20:03:23;;;;;;;1.70;1.60;;;20.80;78.80;;;;;;6195515;23;20156;-88
2023/08/17 20:05:49;;;;;;;1.67;1.52;;;20.80;78.60;;;;;;6195766;23;20224;-88
2023/08/17 20:08:15;;;;;;;1.70;1.60;;;20.80;78.70;;;;;;6194183;23;20137;-88
2023/08/17 20:10:42;;;;;;;1.90;1.70;;;20.80;78.50;;;;;;6195329;23;20245;-88
2023/08/17 20:13:08;;;;;;;2.00;1.80;;;20.90;78.30;;;;;;6170446;23;20533;-88
2023/08/17 20:15:34;;;;;;;1.98;1.77;;;20.90;78.50;;;;;;6195147;23;20154;-88
2023/08/17 20:18:00;;;;;;;2.08;1.90;;;20.90;78.40;;;;;;6194684;23;20252;-89
2023/08/17 20:20:28;;;;;;;2.25;2.05;;;20.90;78.60;;;;;;6170368;23;20180;-88
2023/08/17 20:22:54;;;;;;;2.33;2.10;;;20.80;78.50;;;;;;6170271;23;20173;-88
2023/08/17 20:25:20;;;;;;;2.13;1.92;;;20.90;78.70;;;;;;6194871;23;20179;-88
2023/08/17 20:27:46;;;;;;;2.03;1.83;;;20.90;78.60;;;;;;6170158;23;20150;-88
2023/08/17 20:30:13;;;;;;;2.47;2.20;;;20.90;78.60;;;;;;6194580;23;20142;-88
2023/08/17 20:32:39;;;;;;;2.38;2.10;;;20.90;78.60;;;;;;6194907;23;20506;-88
2023/08/17 20:35:08;;;;;;;2.30;2.10;;;20.90;78.50;;;;;;6194954;23;20152;-88
2023/08/17 20:37:37;;;;;;;2.75;2.30;;;20.90;78.50;;;;;;6169408;23;20283;-88
2023/08/17 20:40:04;;;;;;;2.00;1.88;;;20.90;78.40;;;;;;6169042;23;20493;-88
2023/08/17 20:42:30;;;;;;;2.65;2.00;;;20.90;78.30;;;;;;6219865;23;20150;-88
2023/08/17 20:44:56;;;;;;;2.83;2.20;;;21.00;78.30;;;;;;6168768;23;20210;-88
2023/08/17 20:47:27;;;;;;;2.40;2.10;;;20.90;78.10;;;;;;6144533;23;20168;-87
2023/08/17 20:49:58;;;;;;;2.40;2.20;;;21.00;78.10;;;;;;6105842;23;20155;-88
2023/08/17 20:52:24;;;;;;;2.20;2.00;;;21.00;78.10;;;;;;6076501;23;20192;-89
2023/08/17 20:54:50;;;;;;;2.50;2.20;;;21.00;78.00;;;;;;6099387;23;20198;-89
2023/08/17 20:57:16;;;;;;;2.30;2.10;;;21.00;78.00;;;;;;6099135;23;20242;-88
2023/08/17 20:59:42;;;;;;;2.50;2.30;;;21.00;78.00;;;;;;6099493;23;20159;-88
2023/08/17 21:02:08;;;;;;;2.58;2.25;;;20.90;77.90;;;;;;6075370;23;20238;-88
2023/08/17 21:04:34;;;;;;;2.25;2.05;;;21.00;77.90;;;;;;6099429;23;20655;-88
2023/08/17 21:07:07;;;;;;;2.35;2.15;;;21.00;77.90;;;;;;6074096;23;20162;-88
2023/08/17 21:09:33;;;;;;;2.80;2.40;;;21.00;77.90;;;;;;6075146;23;20178;-88
2023/08/17 21:12:01;;;;;;;2.55;2.15;;;21.00;77.90;;;;;;6075487;23;20590;-88
2023/08/17 21:14:31;;;;;;;2.42;2.22;;;21.00;77.90;;;;;;6099349;23;20152;-88
2023/08/17 21:17:00;;;;;;;2.35;2.15;;;21.00;77.90;;;;;;6099985;23;20164;-88
2023/08/17 21:19:26;;;;;;;2.10;1.90;;;21.00;78.70;;;;;;6075188;23;20163;-87
2023/08/17 21:21:53;;;;;;;2.40;2.20;;;21.00;77.80;;;;;;6155344;23;20151;-88
2023/08/17 21:24:23;;;;;;;2.78;2.15;;;21.00;77.80;;;;;;6161796;23;20163;-88
2023/08/17 21:26:54;;;;;;;2.65;2.30;;;21.10;77.90;;;;;;6167617;23;20662;-88
2023/08/17 21:29:26;;;;;;;2.72;2.35;;;21.00;77.80;;;;;;6142806;23;20157;-88
2023/08/17 21:31:59;;;;;;;2.80;2.50;;;21.00;77.90;;;;;;6168441;23;20161;-87
2023/08/17 21:34:27;;;;;;;2.58;2.30;;;21.00;77.90;;;;;;6167812;23;20153;-89
2023/08/17 21:36:53;;;;;;;2.83;2.47;;;21.00;77.90;;;;;;6167607;23;20180;-88
2023/08/17 21:39:19;;;;;;;2.65;2.45;;;21.00;78.00;;;;;;6168503;23;20149;-89
2023/08/17 21:41:46;;;;;;;2.70;2.33;;;21.00;78.00;;;;;;6193224;23;20141;-89
2023/08/17 21:44:14;;;;;;;5.25;2.42;;;21.10;78.00;;;;;;6117853;23;20200;-89
2023/08/17 21:46:47;;;;;;;2.80;2.47;;;21.00;77.90;;;;;;6167291;23;20580;-88
2023/08/17 21:49:18;;;;;;;2.85;2.00;;;21.00;77.90;;;;;;6143533;23;20199;-89
2023/08/17 21:51:48;;;;;;;3.00;2.63;;;21.00;77.90;;;;;;6143488;23;20148;-89
2023/08/17 21:54:18;;;;;;;2.65;2.45;;;21.00;77.90;;;;;;6169210;23;20177;-88
2023/08/17 21:56:44;;;;;;;2.28;2.08;;;21.10;77.90;;;;;;6142997;23;20233;-88
2023/08/17 21:59:12;;;;;;;2.83;2.53;;;21.00;77.90;;;;;;6168999;23;20565;-88
2023/08/17 22:01:39;;;;;;;2.65;2.45;;;21.00;77.90;;;;;;6143809;23;20592;-88
2023/08/17 22:04:09;;;;;;;2.53;2.25;;;21.00;77.90;;;;;;6144879;23;20230;-88
2023/08/17 22:06:37;;;;;;;2.78;2.53;;;21.00;77.90;;;;;;6168004;23;20553;-87
2023/08/17 22:09:05;;;;;;;2.53;2.33;;;21.00;77.90;;;;;;6168726;23;20157;-88
2023/08/17 22:11:33;;;;;;;2.75;2.47;;;21.00;77.80;;;;;;6146572;23;20237;-87
2023/08/17 22:14:00;;;;;;;2.60;2.40;;;21.00;77.90;;;;;;6132498;23;20190;-88
2023/08/17 22:16:28;;;;;;;2.45;2.22;;;21.00;77.90;;;;;;6132727;23;20234;-88
2023/08/17 22:18:58;;;;;;;2.60;2.40;;;21.10;78.00;;;;;;6086690;23;20186;-88
2023/08/17 22:21:24;;;;;;;2.00;1.90;;;21.00;77.80;;;;;;6056256;23;20618;-87
2023/08/17 22:23:53;;;;;;;2.75;2.45;;;21.00;77.90;;;;;;6055928;23;20155;-87
2023/08/17 22:26:26;;;;;;;2.72;2.25;;;21.00;77.80;;;;;;6055771;23;20151;-88
2023/08/17 22:28:54;;;;;;;2.53;2.33;;;21.00;77.90;;;;;;6079729;23;20155;-88
2023/08/17 22:31:19;;;;;;;2.60;2.40;;;21.00;77.90;;;;;;6055786;23;20152;-88
2023/08/17 22:33:49;;;;;;;2.92;2.63;;;21.00;77.90;;;;;;6103542;23;20221;-88
2023/08/17 22:36:19;;;;;;;3.10;2.80;;;21.00;78.00;;;;;;6055971;23;20516;-88
2023/08/17 22:38:46;;;;;;;2.63;2.42;;;21.00;78.00;;;;;;6055867;23;20155;-88
2023/08/17 22:41:12;;;;;;;2.55;2.35;;;21.00;78.10;;;;;;6103852;23;20147;-87
2023/08/17 22:43:37;;;;;;;3.55;2.58;;;21.00;78.10;;;;;;6103103;23;20159;-87
2023/08/17 22:46:04;;;;;;;2.55;2.28;;;21.00;78.10;;;;;;6163439;23;20161;-87
2023/08/17 22:48:31;;;;;;;2.58;2.38;;;20.90;78.00;;;;;;6167956;23;20149;-88
2023/08/17 22:50:59;;;;;;;2.63;2.30;;;20.90;78.10;;;;;;6168447;23;20144;-88
2023/08/17 22:53:27;;;;;;;2.60;2.40;;;21.00;78.20;;;;;;6168042;23;20223;-88
2023/08/17 22:55:53;;;;;;;2.72;2.42;;;20.90;78.10;;;;;;6167351;23;20153;-88
2023/08/17 22:58:18;;;;;;;2.65;2.45;;;21.00;78.10;;;;;;6193089;23;20157;-87
2023/08/17 23:00:47;;;;;;;2.67;2.40;;;21.00;78.00;;;;;;6193262;23;20141;-89
2023/08/17 23:03:14;;;;;;;2.58;2.35;;;21.00;78.00;;;;;;6167949;23;20140;-88
2023/08/17 23:05:41;;;;;;;3.58;2.50;;;21.00;78.00;;;;;;6141843;23;20153;-88
2023/08/17 23:08:09;;;;;;;2.60;2.40;;;21.00;77.90;;;;;;6116524;23;20171;-88
2023/08/17 23:10:35;;;;;;;2.47;2.22;;;21.00;78.00;;;;;;6166406;23;20160;-88
2023/08/17 23:13:03;;;;;;;2.47;2.28;;;21.00;78.00;;;;;;6091888;23;20268;-88
2023/08/17 23:15:30;;;;;;;2.55;2.35;;;21.00;78.00;;;;;;6143801;23;20176;-88
2023/08/17 23:18:06;;;;;;;3.60;2.38;;;20.90;78.00;;;;;;6141949;23;20164;-88
2023/08/17 23:20:32;;;;;;;3.45;2.25;;;20.90;77.90;;;;;;6164578;23;20160;-87
2023/08/17 23:22:59;;;;;;;2.60;2.30;;;20.90;78.00;;;;;;6169789;23;20142;-88
2023/08/17 23:25:29;;;;;;;2.85;2.47;;;21.00;78.10;;;;;;6168951;23;20188;-88
2023/08/17 23:27:57;;;;;;;2.60;2.20;;;20.90;78.10;;;;;;6195242;23;20184;-88
2023/08/17 23:30:26;;;;;;;2.58;2.38;;;20.90;78.00;;;;;;6146584;23;20576;-88
2023/08/17 23:32:54;;;;;;;3.08;2.60;;;20.90;78.00;;;;;;6145167;23;20195;-88
2023/08/17 23:35:24;;;;;;;2.58;2.35;;;20.90;78.00;;;;;;6169794;23;20145;-88
2023/08/17 23:37:51;;;;;;;2.60;2.40;;;20.90;78.10;;;;;;6170208;23;20232;-88
2023/08/17 23:40:20;;;;;;;3.10;2.80;;;20.90;78.10;;;;;;6144890;23;20193;-88
2023/08/17 23:42:46;;;;;;;2.60;2.40;;;20.90;78.10;;;;;;6194863;23;20200;-88
2023/08/17 23:45:13;;;;;;;3.92;2.70;;;20.90;78.10;;;;;;6194340;23;20192;-88
2023/08/17 23:47:43;;;;;;;2.85;2.65;;;20.90;78.90;;;;;;6169448;23;20153;-88
2023/08/17 23:50:09;;;;;;;2.70;2.50;;;20.90;78.60;;;;;;6143642;23;20602;-88
2023/08/17 23:52:38;;;;;;;2.70;2.50;;;21.00;78.30;;;;;;6144867;23;20191;-88
2023/08/17 23:55:04;;;;;;;2.60;2.40;;;20.90;78.20;;;;;;6169020;23;20157;-88
2023/08/17 23:57:33;;;;;;;3.08;2.60;;;20.90;78.20;;;;;;6169701;23;20179;-88
